Latest Weather Observations for Nhill Aerodrome

IDV60801

Issued at 8:52 pm EDT Friday 26 February 2021 (issued every 10 minutes, with the page automatically refreshed every 10 minutes)

About weather observations | Map of weather stations | Latest weather observations for VIC | Other Formats
Station Details ID: 078015 Name: NHILL AERODROME Lat: -36.31 Lon: 141.65 Height: 138.9 m
Data from the previous 72 hours. | See also: Recent months at Nhill Aerodrome
Date/Time
EDT
Temp
°C
App
Temp
°C
Dew
Point
°C
Rel
Hum
%
Delta-T
°C
Wind Press
QNH
hPa
Press
MSL
hPa
Rain since
9am
mm
Dir  Spd
km/h
Gust
km/h
Spd
kts
Gust
kts
26/08:30pm 19.7 16.3 3.8 35 7.6 S 11 11 6 6 1012.1 1011.6 0.0
26/08:00pm 21.8 17.2 3.9 31 8.7 S 17 20 9 11 1011.7 1011.2 0.0
26/07:30pm 23.0 18.8 4.0 29 9.3 S 15 20 8 11 1011.7 1011.2 0.0
26/07:00pm 23.7 19.8 3.6 27 9.9 S 13 24 7 13 1011.6 1011.1 0.0
26/06:30pm 23.7 20.6 3.6 27 9.9 SE 9 20 5 11 1011.5 1011.0 0.0
26/06:00pm 23.7 20.6 3.6 27 9.9 SSE 9 17 5 9 1011.4 1010.9 0.0
26/05:30pm 23.7 19.1 3.6 27 9.9 S 17 30 9 16 1011.4 1010.9 0.0
26/05:00pm 24.1 19.9 4.0 27 10.0 SSE 15 24 8 13 1011.6 1011.1 0.0
26/04:30pm 23.8 21.3 3.7 27 9.9 SSW 6 17 3 9 1012.0 1011.5 0.0
26/04:00pm 23.0 19.1 3.5 28 9.5 S 13 24 7 13 1012.2 1011.7 0.0
26/03:30pm 23.2 19.5 4.2 29 9.4 SSE 13 20 7 11 1012.7 1012.2 0.0
26/03:00pm 21.9 18.3 3.1 29 9.0 ESE 11 20 6 11 1013.3 1012.7 0.0
26/02:30pm 21.6 18.1 3.3 30 8.8 SSE 11 26 6 14 1013.5 1012.9 0.0
26/02:00pm 21.4 17.0 4.5 33 8.3 SE 17 26 9 14 1013.7 1013.1 0.0
26/01:30pm 20.3 15.8 4.4 35 7.7 SE 17 32 9 17 1013.9 1013.3 0.0
26/01:00pm 19.1 14.4 5.2 40 6.8 SSE 19 32 10 17 1014.5 1013.9 0.0
26/12:30pm 19.2 14.3 5.3 40 6.8 SE 20 35 11 19 1015.0 1014.4 0.0
26/12:00pm 17.5 13.6 5.4 45 5.9 S 15 28 8 15 1015.4 1014.9 0.0
26/11:30am 18.1 13.4 6.0 45 6.0 SSE 20 32 11 17 1015.6 1015.1 0.0
26/11:00am 17.1 12.8 5.4 46 5.7 S 17 24 9 13 1015.9 1015.4 0.0
26/10:30am 15.5 11.5 5.1 50 5.0 SSE 15 20 8 11 1016.0 1015.5 0.0
26/10:00am 15.5 11.5 4.8 49 5.1 SSE 15 28 8 15 1016.1 1015.6 0.0
26/09:30am 14.7 11.4 6.3 57 4.1 SSE 13 17 7 9 1015.8 1015.3 0.0
26/09:00am 13.9 10.8 7.2 64 3.3 SSE 13 17 7 9 1015.9 1015.4 0.0
26/08:30am 12.5 10.0 8.0 74 2.2 SSE 11 15 6 8 1015.6 1015.1 0.0
26/08:00am 11.0 8.8 7.9 81 1.5 SE 9 13 5 7 1015.1 1014.5 0.0
26/07:30am 9.4 6.6 6.8 84 1.2 SSE 11 15 6 8 1014.8 1014.2 0.0
26/07:00am 10.0 6.6 7.8 86 1.1 S 15 17 8 9 1014.5 1013.9 0.0
26/06:30am 9.3 6.3 7.6 89 0.8 S 13 17 7 9 1014.2 1013.6 0.0
26/06:00am 9.9 7.7 7.8 87 1.0 S 9 13 5 7 1014.2 1013.6 0.0
26/05:30am 10.7 7.5 8.5 86 1.1 S 15 17 8 9 1013.9 1013.3 0.0
26/05:00am 11.7 8.2 8.7 82 1.5 S 17 20 9 11 1013.7 1013.1 0.0
26/04:30am 12.3 8.2 8.8 79 1.8 S 20 26 11 14 1013.6 1013.0 0.0
26/04:00am 12.7 9.3 9.0 78 1.9 S 17 20 9 11 1013.7 1013.1 0.0
26/03:30am 13.7 10.3 9.0 73 2.4 S 17 22 9 12 1013.9 1013.3 0.0
26/03:00am 13.9 10.2 9.5 75 2.3 S 19 22 10 12 1014.0 1013.4 0.0
26/02:30am 14.1 11.3 9.9 76 2.2 S 15 19 8 10 1014.1 1013.5 0.0
26/02:00am 14.2 11.5 10.2 77 2.1 S 15 20 8 11 1014.0 1013.4 0.0
26/01:30am 14.1 11.8 10.3 78 2.0 S 13 20 7 11 1013.9 1013.3 0.0
26/01:00am 13.9 9.7 9.9 77 2.1 S 22 30 12 16 1014.1 1013.5 0.0
26/12:30am 14.5 12.3 12.0 85 1.4 SSW 15 20 8 11 1014.2 1013.6 0.0
26/12:00am 14.5 11.5 12.0 85 1.4 S 19 24 10 13 1014.0 1013.4 0.0
 
Date/Time
EDT
Temp
°C
App
Temp
°C
Dew
Point
°C
Rel
Hum
%
Delta-T
°C
Wind Press
QNH
hPa
Press
MSL
hPa
Rain since
9am
mm
Dir  Spd
km/h
Gust
km/h
Spd
kts
Gust
kts
25/11:30pm 15.4 12.7 11.8 79 2.0 SW 17 20 9 11 1014.0 1013.4 0.0
25/11:00pm 15.7 13.0 11.7 77 2.2 SW 17 24 9 13 1013.9 1013.3 0.0
25/10:30pm 15.8 13.0 11.4 75 2.4 SW 17 22 9 12 1013.7 1013.1 0.0
25/10:00pm 15.8 12.3 10.8 72 2.7 SW 20 26 11 14 1013.6 1013.0 0.0
25/09:30pm 16.3 12.0 10.6 69 3.0 SW 24 32 13 17 1013.5 1012.9 0.0
25/09:00pm 17.0 13.4 9.9 63 3.8 SW 19 24 10 13 1013.0 1012.5 0.0
25/08:30pm 17.5 13.9 9.9 61 4.0 WSW 19 28 10 15 1012.9 1012.4 0.0
25/08:00pm 18.5 12.9 10.3 59 4.4 SW 30 35 16 19 1012.5 1012.0 0.0
25/07:30pm 19.4 12.8 10.1 55 5.0 SW 35 43 19 23 1012.2 1011.7 0.0
25/07:00pm 20.7 14.4 9.0 47 6.2 SW 32 39 17 21 1011.9 1011.4 0.0
25/06:30pm 21.2 14.7 8.1 43 6.9 SW 32 41 17 22 1011.5 1011.0 0.0
25/06:00pm 21.5 15.3 7.7 41 7.2 WSW 30 39 16 21 1011.3 1010.8 0.0
25/05:30pm 22.5 15.8 7.5 38 7.8 WSW 32 44 17 24 1011.4 1010.9 0.0
25/05:00pm 22.6 15.7 7.2 37 8.0 WSW 33 43 18 23 1011.5 1011.0 0.0
25/04:30pm 22.6 15.9 7.2 37 8.0 SW 32 44 17 24 1011.5 1011.0 0.0
25/04:02pm 22.5 16.6 7.5 38 7.8 SW 28 48 15 26 1011.5 1011.0 0.0
25/04:00pm 21.9 16.0 7.7 40 7.4 SW 28 37 15 20 1011.5 1011.0 0.0
25/03:30pm 23.3 17.5 7.8 37 8.2 SW 28 41 15 22 1011.8 1011.3 0.0
25/03:00pm 23.0 16.5 6.7 35 8.4 WSW 30 41 16 22 1012.1 1011.6 0.0
25/02:30pm 22.8 16.4 7.0 36 8.2 SW 30 43 16 23 1012.6 1012.1 0.0
25/02:00pm 21.7 16.3 6.4 37 7.8 WSW 24 37 13 20 1012.9 1012.4 0.0
25/01:30pm 21.1 14.9 6.2 38 7.5 WSW 28 43 15 23 1013.2 1012.6 0.0
25/01:00pm 20.2 13.6 6.2 40 7.0 SW 30 44 16 24 1013.7 1013.1 0.0
25/12:30pm 20.4 14.5 7.4 43 6.7 SW 28 43 15 23 1014.2 1013.6 0.0
25/12:00pm 19.6 14.3 7.0 44 6.4 WSW 24 41 13 22 1014.5 1013.9 0.0
25/11:30am 18.3 13.8 6.8 47 5.8 SW 20 32 11 17 1014.9 1014.3 0.0
25/11:00am 17.4 12.2 7.2 51 5.1 SW 24 37 13 20 1015.2 1014.6 0.0
25/10:30am 16.4 11.3 7.6 56 4.4 SW 24 37 13 20 1015.2 1014.6 0.0
25/10:00am 15.5 10.7 7.3 58 4.1 SW 22 32 12 17 1015.1 1014.5 0.0
25/09:30am 14.8 10.4 7.6 62 3.6 SW 20 26 11 14 1015.1 1014.5 0.0
25/09:00am 12.7 9.6 7.2 69 2.7 SW 13 15 7 8 1015.0 1014.4 0.0
25/08:30am 10.3 7.6 5.7 73 2.1 SW 9 13 5 7 1014.9 1014.3 0.0
25/08:00am 8.3 7.1 4.7 78 1.6 CALM 0 0 0 0 1014.5 1013.9 0.0
25/07:30am 7.8 6.2 4.4 79 1.5 S 2 6 1 3 1014.4 1013.8 0.0
25/07:00am 7.4 6.0 3.8 78 1.6 CALM 0 0 0 0 1014.1 1013.5 0.0
25/06:30am 7.2 4.1 3.8 79 1.5 S 9 9 5 5 1014.1 1013.5 0.0
25/06:00am 7.9 4.5 4.1 77 1.7 S 11 13 6 7 1014.2 1013.6 0.0
25/05:30am 8.3 5.8 4.5 77 1.7 SSW 7 9 4 5 1013.9 1013.3 0.0
25/05:00am 8.3 5.3 4.1 75 1.8 SSW 9 11 5 6 1014.0 1013.4 0.0
25/04:30am 9.0 5.7 4.4 73 2.0 SSW 11 15 6 8 1014.2 1013.6 0.0
25/04:00am 9.4 5.7 4.4 71 2.2 S 13 15 7 8 1014.6 1014.0 0.0
25/03:30am 10.1 6.1 4.7 69 2.4 S 15 19 8 10 1014.9 1014.3 0.0
25/03:00am 10.4 6.8 4.8 68 2.5 S 13 17 7 9 1015.1 1014.5 0.0
25/02:30am 11.2 7.2 4.9 65 2.9 S 15 17 8 9 1015.1 1014.5 0.0
25/02:00am 11.7 7.7 4.9 63 3.1 S 15 19 8 10 1015.3 1014.8 0.0
25/01:30am 12.1 7.3 4.8 61 3.4 S 19 24 10 13 1015.5 1015.0 0.0
25/01:00am 12.6 7.6 4.6 58 3.7 SSW 20 24 11 13 1015.5 1015.0 0.0
25/12:30am 12.8 8.3 4.0 55 4.0 SSW 17 22 9 12 1015.4 1014.9 0.0
25/12:00am 13.2 9.0 3.6 52 4.3 SSW 15 17 8 9 1015.6 1015.1 0.0
 
Date/Time
EDT
Temp
°C
App
Temp
°C
Dew
Point
°C
Rel
Hum
%
Delta-T
°C
Wind Press
QNH
hPa
Press
MSL
hPa
Rain since
9am
mm
Dir  Spd
km/h
Gust
km/h
Spd
kts
Gust
kts
24/11:30pm 13.8 9.6 3.6 50 4.6 SSW 15 17 8 9 1015.8 1015.3 0.0
24/11:00pm 15.6 10.5 4.0 46 5.4 S 20 26 11 14 1015.8 1015.3 0.0
24/10:30pm 16.3 11.1 3.7 43 5.9 S 20 26 11 14 1015.8 1015.3 0.0
24/10:00pm 16.3 11.5 2.7 40 6.2 S 17 20 9 11 1015.8 1015.3 0.0
24/09:30pm 17.0 12.2 2.6 38 6.6 S 17 19 9 10 1015.5 1015.0 0.0
24/09:00pm 17.6 13.1 2.0 35 7.1 S 15 19 8 10 1015.2 1014.6 0.0
24/08:30pm 19.1 14.5 1.6 31 8.0 S 15 20 8 11 1014.9 1014.3 0.0
24/08:00pm 20.9 15.6 1.7 28 8.9 S 19 22 10 12 1014.8 1014.2 0.0
24/07:30pm 21.9 17.0 2.1 27 9.3 SSE 17 28 9 15 1014.9 1014.3 0.0
24/07:00pm 22.4 17.2 0.3 23 10.1 SSE 17 24 9 13 1014.8 1014.2 0.0
24/06:30pm 22.6 17.9 1.0 24 10.0 S 15 20 8 11 1014.9 1014.3 0.0
24/06:00pm 22.9 17.2 0.7 23 10.2 SSE 20 37 11 20 1015.0 1014.4 0.0
24/05:30pm 23.6 18.3 1.9 24 10.3 S 19 32 10 17 1015.1 1014.5 0.0
24/05:00pm 23.0 17.1 1.9 25 10.0 S 22 33 12 18 1015.4 1014.9 0.0
24/04:30pm 22.8 18.7 2.3 26 9.8 SW 13 22 7 12 1015.6 1015.1 0.0
24/04:00pm 22.1 16.8 2.8 28 9.2 SSE 20 33 11 18 1016.1 1015.6 0.0
24/03:30pm 22.4 17.1 3.0 28 9.3 S 20 32 11 17 1016.7 1016.2 0.0
24/03:00pm 21.5 16.4 3.2 30 8.8 S 19 28 10 15 1017.3 1016.8 0.0
24/02:30pm 21.4 16.2 3.6 31 8.6 S 20 32 11 17 1017.7 1017.2 0.0
24/02:00pm 20.9 16.7 4.0 33 8.2 SE 15 26 8 14 1018.1 1017.6 0.0
24/01:30pm 19.6 15.8 3.7 35 7.6 SSE 13 20 7 11 1018.7 1018.2 0.0
24/01:00pm 19.5 15.6 3.2 34 7.7 SSW 13 24 7 13 1019.2 1018.7 0.0
24/12:30pm 18.0 13.2 2.7 36 7.1 S 17 26 9 14 1019.9 1019.4 0.0
24/12:00pm 17.9 13.6 3.4 38 6.8 SSE 15 20 8 11 1020.3 1019.8 0.0
24/11:30am 17.3 12.7 3.6 40 6.4 SE 17 24 9 13 1020.8 1020.2 0.0
24/11:00am 16.7 12.0 5.0 46 5.6 SE 19 26 10 14 1020.9 1020.3 0.0
24/10:30am 15.2 11.8 6.0 54 4.5 SSE 13 20 7 11 1021.1 1020.5 0.0
24/10:00am 14.1 10.7 6.0 58 3.9 SE 13 19 7 10 1021.1 1020.5 0.0
24/09:30am 11.8 9.2 5.9 67 2.8 SSE 9 11 5 6 1021.2 1020.6 0.0
24/09:00am 10.3 7.6 5.5 72 2.2 SSE 9 11 5 6 1020.9 1020.3 0.0
24/08:30am 9.5 6.3 5.1 74 2.0 SSE 11 13 6 7 1020.5 1020.0 0.0
24/08:00am 8.7 6.2 4.9 77 1.7 SSE 7 9 4 5 1020.4 1019.9 0.0
24/07:30am 8.0 6.0 4.4 78 1.6 SSE 4 7 2 4 1020.1 1019.6 0.0
24/07:00am 7.8 4.8 4.0 77 1.6 SSE 9 9 5 5 1019.9 1019.4 0.0
24/06:30am 8.3 5.3 4.3 76 1.8 SSE 9 13 5 7 1019.7 1019.2 0.0
24/06:00am 8.8 5.5 4.4 74 1.9 SSE 11 13 6 7 1019.8 1019.3 0.0
24/05:30am 8.8 5.4 4.2 73 2.0 SSE 11 15 6 8 1019.7 1019.2 0.0
24/05:00am 8.7 4.9 3.9 72 2.1 SSE 13 15 7 8 1019.7 1019.2 0.0
24/04:30am 8.8 5.0 3.8 71 2.2 SSE 13 17 7 9 1019.8 1019.3 0.0
24/04:00am 8.9 5.1 3.7 70 2.3 SSE 13 15 7 8 1020.0 1019.5 0.0
24/03:30am 8.8 4.9 3.6 70 2.3 SSE 13 15 7 8 1020.0 1019.5 0.0
24/03:00am 8.8 4.5 3.4 69 2.3 SSE 15 17 8 9 1020.0 1019.5 0.0
24/02:30am 9.5 5.2 3.5 66 2.6 SE 15 19 8 10 1020.3 1019.8 0.0
24/02:00am 9.8 5.5 3.5 65 2.8 SSE 15 17 8 9 1020.8 1020.2 0.0
24/01:30am 10.1 5.9 3.6 64 2.9 SE 15 19 8 10 1020.8 1020.2 0.0
24/01:00am 10.5 6.2 3.3 61 3.2 SSE 15 17 8 9 1020.9 1020.3 0.0
24/12:30am 11.0 6.7 3.3 59 3.4 SSE 15 19 8 10 1020.9 1020.3 0.0
24/12:00am 12.4 7.4 3.4 54 4.0 SSE 19 24 10 13 1021.0 1020.4 0.0
 
Date/Time
EDT
Temp
°C
App
Temp
°C
Dew
Point
°C
Rel
Hum
%
Delta-T
°C
Wind Press
QNH
hPa
Press
MSL
hPa
Rain since
9am
mm
Dir  Spd
km/h
Gust
km/h
Spd
kts
Gust
kts
23/11:30pm 12.7 8.0 3.1 52 4.3 SSE 17 22 9 12 1021.0 1020.4 0.0
23/11:00pm 13.8 8.6 3.3 49 4.7 SSE 20 28 11 15 1020.9 1020.3 0.0
23/10:30pm 14.5 9.3 3.6 48 5.0 SSE 20 28 11 15 1020.7 1020.1 0.0
23/10:00pm 14.7 9.7 3.5 47 5.1 SSE 19 24 10 13 1020.4 1019.9 0.0
23/09:30pm 15.9 9.9 3.4 43 5.8 SSE 24 33 13 18 1020.0 1019.5 0.0
23/09:00pm 15.9 10.7 2.3 40 6.1 SSE 19 26 10 14 1019.6 1019.1 0.0

Other formats

Comma delimited format used in spreadsheet applications
http://www.bom.gov.au/fwo/IDV60801/IDV60801.94827.axf

JavaScript Object Notation format (JSON) in row-major order
http://www.bom.gov.au/fwo/IDV60801/IDV60801.94827.json

Data quality

Most of these data are generated automatically and are frequently updated. Quality checks on data are not normally performed. It is possible for incorrect values to appear. Refer to information at About Latest Weather Observations and please check the disclaimer before using these data.